Terminal Aerodrome Forecast
Issued by NWS

Home | Current Version | Previous Version | Graphics & Text | Print | Product List | Glossary Off
Versions: 1 2 3 4 5 6 7 8 9 10 11 12 13 14 15 16 17

000
FTUS43 KDDC 231140
TAFHYS
TAF
KHYS 231140Z 2312/2412 36004KT 1SM BR OVC002
     FM231300 VRB03KT 1/2SM FZFG VV002
     FM231500 05005KT P6SM OVC012
     FM232100 08009KT P6SM OVC035
     FM240400 08008KT P6SM -FZDZ OVC015=

USA.gov is the U.S. government's official web portal to all federal, state and local government web resources and services.